Dallas, Texas
Traffic Map
Current Weather Conditions
Dallas, Texas
Overcast
Overcast
68°
Feels Like: 68°
Wind Chill: 68° Ceiling: 1300
Heat Index: 68° Visibility: 7mi
Dew Point: 64° Wind: 12mph
Humidity: 87% Direction: 180° (S)
Pressure: 29.89in Gusts: 0mph
Raw Report DataKDAL 280805Z 18010KT 7SM OVC013 20/18 A2989 RMK AO2 OVC V BKN T02000178
Traffic Incident Summary
Active as of:
Severity:
Category:
InformationThere was an issue retrieving the traffic information for this location. Please try a different location or try again shortly.
Advertisements
Track Severe Weather on mobile